createdAt,value
2018-01-05T00:01:01.983Z,98837.36
2018-01-05T00:02:06.293Z,98838.50
2018-01-05T00:03:10.504Z,98835.31
2018-01-05T00:04:14.724Z,98800.09
2018-01-05T00:05:19.084Z,98854.06
2018-01-05T00:06:23.314Z,98831.52
2018-01-05T00:07:27.614Z,98844.83
2018-01-05T00:08:31.840Z,98857.14
2018-01-05T00:09:36.148Z,98874.49
2018-01-05T00:10:41.408Z,98852.95
2018-01-05T00:11:46.677Z,98864.47
2018-01-05T00:12:50.897Z,98844.10
2018-01-05T00:13:55.356Z,98844.70
2018-01-05T00:14:59.619Z,98844.45
2018-01-05T00:16:04.338Z,98841.14
2018-01-05T00:17:08.742Z,98839.95
2018-01-05T00:18:12.956Z,98844.79
2018-01-05T00:19:17.381Z,98851.97
2018-01-05T00:20:21.877Z,98858.66
2018-01-05T00:21:26.080Z,98871.10
2018-01-05T00:22:30.591Z,98850.48
2018-01-05T00:23:34.901Z,98854.59
2018-01-05T00:24:39.504Z,98853.56
2018-01-05T00:25:43.799Z,98855.22
2018-01-05T00:26:48.270Z,98853.43
2018-01-05T00:27:52.600Z,98856.64
2018-01-05T00:28:56.787Z,98861.80
2018-01-05T00:30:01.028Z,98867.50
2018-01-05T00:31:05.580Z,98863.78
2018-01-05T00:32:09.847Z,98874.15
2018-01-05T00:33:14.202Z,98870.91
2018-01-05T00:34:18.360Z,98868.19
2018-01-05T00:35:22.639Z,98876.76
2018-01-05T00:36:26.823Z,98866.67
2018-01-05T00:37:31.066Z,98871.50
2018-01-05T00:38:35.215Z,98864.95
2018-01-05T00:39:41.031Z,98902.27
2018-01-05T00:40:45.543Z,98883.17
2018-01-05T00:41:49.749Z,98878.88
2018-01-05T00:42:54.033Z,98868.48
2018-01-05T00:43:58.199Z,98883.50
2018-01-05T00:45:04.385Z,98879.66
2018-01-05T00:46:08.920Z,98896.87
2018-01-05T00:47:13.834Z,98872.89
2018-01-05T00:48:18.011Z,98874.48
2018-01-05T00:49:22.419Z,98867.43
2018-01-05T00:50:26.861Z,98886.81
2018-01-05T00:51:32.172Z,98888.27
2018-01-05T00:52:37.014Z,98892.17
2018-01-05T00:53:42.208Z,98882.68
2018-01-05T00:54:46.437Z,98897.34
2018-01-05T00:55:50.651Z,98883.61
2018-01-05T00:56:55.415Z,98890.69
2018-01-05T00:57:59.921Z,98885.86
2018-01-05T00:59:04.169Z,98901.94
2018-01-05T01:00:09.272Z,98883.64
2018-01-05T01:01:13.533Z,98907.23
2018-01-05T01:02:17.735Z,98904.25
2018-01-05T01:03:21.892Z,98896.01
2018-01-05T01:04:26.026Z,98902.86
2018-01-05T01:05:30.572Z,98914.48
2018-01-05T01:06:35.744Z,98902.87
2018-01-05T01:07:39.845Z,98906.91
2018-01-05T01:08:44.407Z,98902.05
2018-01-05T01:09:48.956Z,98906.91
2018-01-05T01:10:53.157Z,98922.92
2018-01-05T01:11:57.329Z,98916.83
2018-01-05T01:13:01.551Z,98898.80
2018-01-05T01:14:05.682Z,98909.41
2018-01-05T01:15:10.608Z,98917.75
2018-01-05T01:16:15.870Z,98876.23
2018-01-05T01:17:20.038Z,98920.83
2018-01-05T01:18:24.187Z,98908.95
2018-01-05T01:19:28.449Z,98914.61
2018-01-05T01:20:33.250Z,98904.91
2018-01-05T01:21:37.483Z,98912.86
2018-01-05T01:22:43.007Z,98908.72
2018-01-05T01:23:47.114Z,98914.18
2018-01-05T01:24:51.204Z,98905.41
2018-01-05T01:25:55.456Z,98930.95
2018-01-05T01:26:59.584Z,98914.18
2018-01-05T01:28:04.015Z,98920.80
2018-01-05T01:29:08.591Z,98918.55
2018-01-05T01:30:16.360Z,98928.11
2018-01-05T01:31:20.676Z,98935.27
2018-01-05T01:32:25.016Z,98922.12
2018-01-05T01:33:29.185Z,98920.17
2018-01-05T01:34:33.714Z,98933.34
2018-01-05T01:35:37.973Z,98937.22
2018-01-05T01:36:42.934Z,98923.02
2018-01-05T01:37:47.241Z,98921.27
2018-01-05T01:38:52.002Z,98923.52
2018-01-05T01:39:56.161Z,98928.25
2018-01-05T01:41:01.188Z,98918.13
2018-01-05T01:42:05.310Z,98928.19
2018-01-05T01:43:09.520Z,98936.59
2018-01-05T01:44:14.605Z,98949.89
2018-01-05T01:45:19.439Z,98934.91
2018-01-05T01:46:23.834Z,98937.02
2018-01-05T01:47:28.310Z,98932.59
2018-01-05T01:48:32.462Z,98938.62
2018-01-05T01:49:36.667Z,98951.30
2018-01-05T01:50:42.208Z,98938.12
2018-01-05T01:51:46.367Z,98929.05
2018-01-05T01:52:50.506Z,98934.51
2018-01-05T01:53:54.755Z,98930.30
2018-01-05T01:54:58.919Z,98941.35
2018-01-05T01:56:03.619Z,98933.87
2018-01-05T01:57:08.099Z,98933.11
2018-01-05T01:58:13.285Z,98928.11
2018-01-05T01:59:17.493Z,98923.16
2018-01-05T02:00:22.627Z,98940.45
2018-01-05T02:01:26.915Z,98941.06
2018-01-05T02:02:31.932Z,98938.81
2018-01-05T02:03:36.072Z,98939.77
2018-01-05T02:04:40.178Z,98947.84
2018-01-05T02:05:44.389Z,98926.23
2018-01-05T02:06:49.373Z,98956.80
2018-01-05T02:07:53.810Z,98934.40
2018-01-05T02:08:57.989Z,98936.25
2018-01-05T02:10:02.298Z,98958.28
2018-01-05T02:11:06.451Z,98949.45
2018-01-05T02:12:10.623Z,98932.01
2018-01-05T02:13:20.626Z,98946.23
2018-01-05T02:14:24.773Z,98940.05
2018-01-05T02:15:29.521Z,98926.05
2018-01-05T02:16:33.668Z,98947.34
2018-01-05T02:17:38.870Z,98930.48
2018-01-05T02:18:43.323Z,98929.68
2018-01-05T02:19:47.417Z,98900.14
2018-01-05T02:20:51.533Z,98941.43
2018-01-05T02:21:55.664Z,98933.95
2018-01-05T02:23:00.196Z,98942.05
2018-01-05T02:24:04.471Z,98965.80
2018-01-05T02:25:09.258Z,98963.46
2018-01-05T02:26:13.403Z,98930.88
2018-01-05T02:27:17.777Z,98924.66
2018-01-05T02:28:22.064Z,98930.05
2018-01-05T02:29:26.136Z,98937.43
2018-01-05T02:30:30.774Z,98947.06
2018-01-05T02:31:36.018Z,98963.15
2018-01-05T02:32:41.215Z,98960.11
2018-01-05T02:33:45.577Z,98931.29
2018-01-05T02:34:50.699Z,98927.88
2018-01-05T02:35:54.936Z,98943.80
2018-01-05T02:36:58.997Z,98940.75
2018-01-05T02:38:03.710Z,98984.30
2018-01-05T02:39:07.943Z,98952.38
2018-01-05T02:40:17.210Z,98949.72
2018-01-05T02:41:21.407Z,98937.88
2018-01-05T02:42:25.525Z,98940.22
2018-01-05T02:43:29.640Z,98920.95
2018-01-05T02:44:34.193Z,98926.86
2018-01-05T02:45:39.156Z,98931.63
2018-01-05T02:46:43.375Z,98943.01
2018-01-05T02:47:47.481Z,98938.80
2018-01-05T02:48:52.121Z,98933.94
2018-01-05T02:49:56.217Z,98944.00
2018-01-05T02:51:00.329Z,98934.70
2018-01-05T02:52:04.486Z,98931.03
2018-01-05T02:53:08.681Z,98932.20
2018-01-05T02:54:13.112Z,98923.88
2018-01-05T02:55:21.042Z,98922.43
2018-01-05T02:56:25.163Z,98945.56
2018-01-05T02:57:29.407Z,98926.00
2018-01-05T02:58:40.216Z,98927.46
2018-01-05T02:59:44.329Z,98930.84
2018-01-05T03:00:51.358Z,98938.52
2018-01-05T03:01:56.022Z,98939.02
2018-01-05T03:03:00.185Z,98942.22
2018-01-05T03:04:04.372Z,98936.80
2018-01-05T03:05:08.497Z,98924.16
2018-01-05T03:06:13.258Z,98933.16
2018-01-05T03:07:17.692Z,98920.28
2018-01-05T03:08:21.812Z,98954.61
2018-01-05T03:09:26.282Z,98925.61
2018-01-05T03:10:30.522Z,98952.92
2018-01-05T03:11:34.706Z,98932.99
2018-01-05T03:12:38.894Z,98950.20
2018-01-05T03:13:43.275Z,98933.02
2018-01-05T03:14:48.640Z,98939.21
2018-01-05T03:15:53.097Z,98936.63
2018-01-05T03:16:57.214Z,98941.80
2018-01-05T03:18:01.404Z,98947.98
2018-01-05T03:19:05.515Z,98936.30
2018-01-05T03:20:09.729Z,98948.65
2018-01-05T03:21:13.905Z,98945.47
2018-01-05T03:22:18.010Z,98934.05
2018-01-05T03:23:22.193Z,98939.67
2018-01-05T03:24:29.982Z,98938.95
2018-01-05T03:25:34.073Z,98953.48
2018-01-05T03:26:38.167Z,98951.80
2018-01-05T03:27:42.764Z,98954.14
2018-01-05T03:28:47.440Z,98945.94
2018-01-05T03:29:52.480Z,98957.18
2018-01-05T03:30:57.170Z,98943.70
2018-01-05T03:32:01.298Z,98989.70
2018-01-05T03:33:05.741Z,98945.66
2018-01-05T03:34:09.852Z,98949.75
2018-01-05T03:35:13.993Z,98953.73
2018-01-05T03:36:18.161Z,98941.48
2018-01-05T03:37:22.533Z,98955.95
2018-01-05T03:38:26.673Z,98945.12
2018-01-05T03:39:31.573Z,98945.16
2018-01-05T03:40:36.000Z,98950.16
2018-01-05T03:41:40.524Z,98951.78
2018-01-05T03:42:44.726Z,98943.47
2018-01-05T03:43:49.450Z,98954.83
2018-01-05T03:44:53.680Z,98947.19
2018-01-05T03:45:58.188Z,98950.20
2018-01-05T03:47:02.292Z,98959.37
2018-01-05T03:48:12.766Z,98965.53
2018-01-05T03:49:17.144Z,98947.39
2018-01-05T03:50:21.422Z,98943.02
2018-01-05T03:51:25.581Z,98949.97
2018-01-05T03:52:29.726Z,98944.64
2018-01-05T03:53:33.928Z,98951.30
2018-01-05T03:54:37.980Z,98967.55
2018-01-05T03:55:42.125Z,98945.30
2018-01-05T03:56:47.769Z,98957.09
2018-01-05T03:57:51.869Z,98956.23
2018-01-05T03:58:56.095Z,98956.23
2018-01-05T04:00:00.237Z,98956.20
2018-01-05T04:01:04.961Z,98951.33
2018-01-05T04:02:09.071Z,98938.91
2018-01-05T04:03:13.479Z,98953.84
2018-01-05T04:04:17.644Z,98951.59
2018-01-05T04:05:21.835Z,98953.88
2018-01-05T04:06:25.988Z,98948.69
2018-01-05T04:07:30.048Z,98949.45
2018-01-05T04:08:34.221Z,98949.37
2018-01-05T04:09:39.081Z,98949.74
2018-01-05T04:10:43.288Z,98940.47
2018-01-05T04:11:47.576Z,98966.00
2018-01-05T04:12:51.675Z,98961.80
2018-01-05T04:13:55.745Z,98944.87
2018-01-05T04:15:00.220Z,98948.45
2018-01-05T04:16:15.448Z,98944.17
2018-01-05T04:17:19.595Z,98948.98
2018-01-05T04:18:23.695Z,98957.72
2018-01-05T04:19:27.845Z,98955.63
2018-01-05T04:20:32.110Z,98952.85
2018-01-05T04:21:37.753Z,98955.47
2018-01-05T04:22:42.224Z,98959.44
2018-01-05T04:23:46.902Z,98955.03
2018-01-05T04:24:51.337Z,98957.69
2018-01-05T04:25:55.680Z,98959.84
2018-01-05T04:27:00.040Z,98966.06
2018-01-05T04:28:05.000Z,98951.59
2018-01-05T04:29:15.354Z,98972.42
2018-01-05T04:30:19.891Z,98979.87
2018-01-05T04:31:24.017Z,98952.48
2018-01-05T04:32:28.453Z,98959.84
2018-01-05T04:33:32.585Z,98966.79
2018-01-05T04:34:39.109Z,98954.50
2018-01-05T04:35:43.389Z,98947.81
2018-01-05T04:36:48.123Z,98963.28
2018-01-05T04:37:53.132Z,98967.61
2018-01-05T04:38:57.314Z,98970.00
2018-01-05T04:40:01.507Z,98985.90
2018-01-05T04:41:06.459Z,98973.48
2018-01-05T04:42:10.593Z,98966.92
2018-01-05T04:43:14.718Z,98970.10
2018-01-05T04:44:19.206Z,98962.95
2018-01-05T04:45:23.617Z,98980.53
2018-01-05T04:46:28.539Z,98951.49
2018-01-05T04:47:33.276Z,98971.72
2018-01-05T04:48:37.355Z,98962.48
2018-01-05T04:49:41.461Z,98986.83
2018-01-05T04:50:45.740Z,98992.09
2018-01-05T04:51:51.494Z,98997.26
2018-01-05T04:52:55.712Z,98989.44
2018-01-05T04:54:00.284Z,98966.79
2018-01-05T04:55:04.432Z,98979.58
2018-01-05T04:56:12.846Z,98987.16
2018-01-05T04:57:17.018Z,98989.88
2018-01-05T04:58:21.113Z,98996.93
2018-01-05T04:59:25.312Z,98986.39
2018-01-05T05:00:29.774Z,98991.46
2018-01-05T05:01:36.874Z,99014.98
2018-01-05T05:02:41.825Z,99009.15
2018-01-05T05:03:46.957Z,98996.86
2018-01-05T05:04:51.112Z,99007.33
2018-01-05T05:05:55.568Z,98991.89
2018-01-05T05:06:59.983Z,99024.87
2018-01-05T05:08:04.137Z,98998.91
2018-01-05T05:09:08.369Z,99006.80
2018-01-05T05:10:12.520Z,99012.63
2018-01-05T05:11:16.693Z,98994.61
2018-01-05T05:12:21.310Z,99022.49
2018-01-05T05:13:25.771Z,98989.94
2018-01-05T05:14:30.218Z,99013.72
2018-01-05T05:15:34.602Z,99017.72
2018-01-05T05:16:38.764Z,99017.75
2018-01-05T05:17:42.859Z,99025.61
2018-01-05T05:18:47.657Z,99013.66
2018-01-05T05:19:52.102Z,99021.60
2018-01-05T05:20:56.295Z,99025.11
2018-01-05T05:22:00.511Z,99000.97
2018-01-05T05:23:04.615Z,99011.50
2018-01-05T05:24:08.900Z,99041.94
2018-01-05T05:25:13.738Z,99035.41
2018-01-05T05:26:17.921Z,99034.95
2018-01-05T05:27:22.157Z,99042.49
2018-01-05T05:28:26.507Z,99038.98
2018-01-05T05:29:31.027Z,99044.98
2018-01-05T05:30:35.762Z,99037.92
2018-01-05T05:31:41.485Z,99035.28
2018-01-05T05:32:47.941Z,99050.68
2018-01-05T05:33:52.145Z,99053.30
2018-01-05T05:34:56.370Z,99044.42
2018-01-05T05:36:00.534Z,99044.36
2018-01-05T05:37:04.708Z,99047.90
2018-01-05T05:38:09.185Z,99055.81
2018-01-05T05:39:17.487Z,99057.57
2018-01-05T05:40:21.660Z,99062.05
2018-01-05T05:41:30.864Z,99069.88
2018-01-05T05:42:35.080Z,99065.30
2018-01-05T05:43:40.194Z,99072.38
2018-01-05T05:44:45.254Z,99071.95
2018-01-05T05:45:50.658Z,99077.78
2018-01-05T05:46:55.364Z,99068.84
2018-01-05T05:47:59.833Z,99075.92
2018-01-05T05:50:07.874Z,99087.23
2018-01-05T05:51:13.002Z,99074.41
2018-01-05T05:52:17.104Z,99084.42
2018-01-05T05:53:21.455Z,99083.24
2018-01-05T05:54:25.613Z,99088.57
2018-01-05T05:55:29.748Z,99080.72
2018-01-05T05:56:33.916Z,99091.22
2018-01-05T05:57:39.651Z,99083.86
2018-01-05T05:58:43.871Z,99089.26
2018-01-05T05:59:48.838Z,99082.77
2018-01-05T06:00:53.712Z,99077.50
2018-01-05T06:01:57.897Z,99070.31
2018-01-05T06:03:02.064Z,99089.29
2018-01-05T06:04:06.491Z,99090.38
2018-01-05T06:05:10.579Z,99088.03
2018-01-05T06:06:14.698Z,99096.01
2018-01-05T06:07:18.936Z,99090.34
2018-01-05T06:08:23.438Z,99082.77
2018-01-05T06:09:27.864Z,99083.35
2018-01-05T06:10:32.052Z,99104.17
2018-01-05T06:11:36.195Z,99097.67
2018-01-05T06:12:40.980Z,99093.30
2018-01-05T06:13:45.119Z,99106.89
2018-01-05T06:14:49.280Z,99101.31
2018-01-05T06:15:53.917Z,99102.14
2018-01-05T06:16:58.630Z,99105.22
2018-01-05T06:18:02.770Z,99100.91
2018-01-05T06:19:06.924Z,99102.20
2018-01-05T06:20:11.091Z,99103.80
2018-01-05T06:21:15.253Z,99108.36
2018-01-05T06:22:21.639Z,99112.36
2018-01-05T06:23:25.912Z,99099.16
2018-01-05T06:24:33.333Z,99110.14
2018-01-05T06:25:37.478Z,99100.23
2018-01-05T06:26:41.712Z,99106.27
2018-01-05T06:27:45.837Z,99115.63
2018-01-05T06:28:50.304Z,99113.98
2018-01-05T06:29:54.476Z,99131.91
2018-01-05T06:30:58.828Z,99112.67
2018-01-05T06:32:03.162Z,99119.13
2018-01-05T06:33:07.296Z,99122.27
2018-01-05T06:34:11.433Z,99113.59
2018-01-05T06:35:15.641Z,99116.07
2018-01-05T06:36:19.753Z,99114.47
2018-01-05T06:37:23.940Z,99107.07
2018-01-05T06:38:28.106Z,99104.45
2018-01-05T06:39:32.259Z,99104.66
2018-01-05T06:40:38.793Z,99114.92
2018-01-05T06:41:42.928Z,99121.14
2018-01-05T06:42:47.025Z,99115.53
2018-01-05T06:43:51.136Z,99112.45
2018-01-05T06:44:55.265Z,99109.32
2018-01-05T06:46:00.042Z,99113.27
2018-01-05T06:47:04.150Z,99103.97
2018-01-05T06:48:21.756Z,99106.62
2018-01-05T06:49:25.913Z,99109.44
2018-01-05T06:50:30.030Z,99117.48
2018-01-05T06:51:34.137Z,99097.67
2018-01-05T06:52:38.864Z,99111.33
2018-01-05T06:53:44.001Z,99120.62
2018-01-05T06:54:48.120Z,99112.69
2018-01-05T06:55:52.216Z,99118.47
2018-01-05T06:56:56.763Z,99117.89
2018-01-05T06:58:00.878Z,99119.73
2018-01-05T06:59:05.316Z,99131.30
2018-01-05T07:00:09.534Z,99129.19
2018-01-05T07:01:13.876Z,99131.90
2018-01-05T07:02:18.125Z,99121.77
2018-01-05T07:03:22.265Z,99125.37
2018-01-05T07:04:26.365Z,99121.91
2018-01-05T07:05:30.585Z,99127.06
2018-01-05T07:06:34.883Z,99121.40
2018-01-05T07:07:39.401Z,99127.64
2018-01-05T07:08:43.853Z,99131.61
2018-01-05T07:09:47.971Z,99132.87
2018-01-05T07:10:52.961Z,99129.74
2018-01-05T07:11:57.191Z,99135.00
2018-01-05T07:13:01.460Z,99141.11
2018-01-05T07:14:05.547Z,99144.19
2018-01-05T07:15:09.762Z,99138.41
2018-01-05T07:16:13.936Z,99138.34
2018-01-05T07:17:18.442Z,99146.55
2018-01-05T07:18:22.578Z,99147.89
2018-01-05T07:19:26.763Z,99153.63
2018-01-05T07:20:30.924Z,99166.94
2018-01-05T07:21:35.067Z,99151.09
2018-01-05T07:22:39.592Z,99152.44
2018-01-05T07:23:44.044Z,99146.31
2018-01-05T07:24:48.556Z,99144.45
2018-01-05T07:25:53.562Z,99160.67
2018-01-05T07:26:57.700Z,99167.63
2018-01-05T07:28:01.873Z,99164.98
2018-01-05T07:29:06.027Z,99165.94
2018-01-05T07:30:10.479Z,99166.39
2018-01-05T07:31:14.621Z,99171.55
2018-01-05T07:32:19.781Z,99178.14
2018-01-05T07:33:23.962Z,99173.70
2018-01-05T07:34:28.057Z,99172.47
2018-01-05T07:35:32.222Z,99182.70
2018-01-05T07:36:36.671Z,99175.92
2018-01-05T07:37:41.798Z,99181.67
2018-01-05T07:38:45.997Z,99178.56
2018-01-05T07:39:50.640Z,99178.14
2018-01-05T07:40:54.766Z,99191.86
2018-01-05T07:41:59.294Z,99177.77
2018-01-05T07:43:04.007Z,99186.16
2018-01-05T07:44:09.033Z,99188.89
2018-01-05T07:45:14.934Z,99196.84
2018-01-05T07:46:19.175Z,99202.41
2018-01-05T07:47:23.394Z,99203.86
2018-01-05T07:48:27.569Z,99200.72
2018-01-05T07:49:32.180Z,99200.72
2018-01-05T07:50:36.325Z,99207.39
2018-01-05T07:51:41.417Z,99217.92
2018-01-05T07:52:45.610Z,99209.49
2018-01-05T07:53:49.812Z,99221.98
2018-01-05T07:54:54.992Z,99217.12
2018-01-05T07:55:59.983Z,99206.09
2018-01-05T07:57:04.460Z,99214.76
2018-01-05T07:58:08.968Z,99218.36
2018-01-05T07:59:13.220Z,99208.17
2018-01-05T08:00:17.563Z,99226.67
2018-01-05T08:01:21.673Z,99215.73
2018-01-05T08:02:25.896Z,99222.73
2018-01-05T08:03:30.186Z,99222.19
2018-01-05T08:04:34.546Z,99231.83
2018-01-05T08:05:39.506Z,99226.59
2018-01-05T08:06:44.296Z,99222.16
2018-01-05T08:07:48.651Z,99236.20
2018-01-05T08:08:53.770Z,99238.77
2018-01-05T08:09:58.009Z,99241.39
2018-01-05T08:11:02.120Z,99245.25
2018-01-05T08:12:06.279Z,99249.65
2018-01-05T08:13:10.725Z,99252.38
2018-01-05T08:14:15.935Z,99256.19
2018-01-05T08:15:20.468Z,99259.48
2018-01-05T08:16:24.597Z,99260.78
2018-01-05T08:17:28.683Z,99258.16
2018-01-05T08:18:32.841Z,99273.59
2018-01-05T08:19:37.308Z,99266.19
2018-01-05T08:20:41.511Z,99284.69
2018-01-05T08:21:45.613Z,99278.91
2018-01-05T08:22:49.756Z,99277.40
2018-01-05T08:23:53.878Z,99280.59
2018-01-05T08:24:58.193Z,99279.86
2018-01-05T08:26:02.341Z,99297.13
2018-01-05T08:27:06.524Z,99292.20
2018-01-05T08:28:10.758Z,99302.60
2018-01-05T08:29:15.220Z,99287.28
2018-01-05T08:30:19.580Z,99294.17
2018-01-05T08:31:23.876Z,99292.50
2018-01-05T08:32:29.652Z,99309.25
2018-01-05T08:33:33.794Z,99311.55
2018-01-05T08:34:38.910Z,99311.09
2018-01-05T08:35:42.964Z,99308.90
2018-01-05T08:36:47.190Z,99313.58
2018-01-05T08:37:51.320Z,99309.95
2018-01-05T08:38:55.817Z,99327.55
2018-01-05T08:39:59.925Z,99318.90
2018-01-05T08:41:04.108Z,99327.32
2018-01-05T08:42:08.308Z,99324.49
2018-01-05T08:43:12.597Z,99317.14
2018-01-05T08:44:16.884Z,99316.63
2018-01-05T08:45:21.735Z,99316.63
2018-01-05T08:46:26.034Z,99326.19
2018-01-05T08:47:30.194Z,99339.41
2018-01-05T08:48:34.513Z,99338.75
2018-01-05T08:49:39.501Z,99341.12
2018-01-05T08:50:43.633Z,99338.09
2018-01-05T08:51:48.139Z,99331.45
2018-01-05T08:52:52.436Z,99342.77
2018-01-05T08:53:56.633Z,99346.48
2018-01-05T08:55:00.824Z,99339.34
2018-01-05T08:56:05.043Z,99346.37
2018-01-05T08:57:09.542Z,99350.38
2018-01-05T08:58:14.421Z,99342.27
2018-01-05T08:59:18.561Z,99347.65
2018-01-05T09:00:28.870Z,99340.05
2018-01-05T09:01:33.129Z,99336.64
2018-01-05T09:02:38.193Z,99341.30
2018-01-05T09:03:42.631Z,99347.00
2018-01-05T09:04:46.725Z,99350.61
2018-01-05T09:05:51.479Z,99355.98
2018-01-05T09:06:55.666Z,99339.21
2018-01-05T09:07:59.883Z,99349.77
2018-01-05T09:09:04.203Z,99360.61
2018-01-05T09:10:09.912Z,99360.77
2018-01-05T09:11:14.098Z,99367.14
2018-01-05T09:12:18.289Z,99364.06
2018-01-05T09:13:22.481Z,99377.30
2018-01-05T09:14:26.909Z,99376.09
2018-01-05T09:15:31.465Z,99367.93
2018-01-05T09:16:39.529Z,99365.72
2018-01-05T09:17:43.685Z,99376.73
2018-01-05T09:18:47.951Z,99371.29
2018-01-05T09:19:52.144Z,99383.25
2018-01-05T09:20:56.279Z,99364.23
2018-01-05T09:22:00.484Z,99364.31
2018-01-05T09:23:05.024Z,99368.27
2018-01-05T09:24:09.260Z,99369.94
2018-01-05T09:25:13.386Z,99382.53
2018-01-05T09:26:17.685Z,99378.47
2018-01-05T09:27:21.869Z,99386.41
2018-01-05T09:28:26.114Z,99388.91
2018-01-05T09:29:30.269Z,99390.59
2018-01-05T09:30:35.043Z,99396.39
2018-01-05T09:31:40.464Z,99395.66
2018-01-05T09:32:45.416Z,99401.61
2018-01-05T09:33:49.521Z,99406.55
2018-01-05T09:34:54.321Z,99401.53
2018-01-05T09:35:58.489Z,99393.84
2018-01-05T09:37:02.676Z,99404.30
2018-01-05T09:38:06.838Z,99410.55
2018-01-05T09:39:11.372Z,99405.84
2018-01-05T09:40:15.561Z,99407.98
2018-01-05T09:41:19.817Z,99421.11
2018-01-05T09:42:24.041Z,99407.81
2018-01-05T09:43:28.194Z,99422.39
2018-01-05T09:44:32.395Z,99412.89
2018-01-05T09:45:37.194Z,99435.00
2018-01-05T09:46:41.953Z,99422.08
2018-01-05T09:47:46.292Z,99421.19
2018-01-05T09:48:52.062Z,99423.40
2018-01-05T09:49:57.362Z,99422.92
2018-01-05T09:51:02.006Z,99420.20
2018-01-05T09:52:06.180Z,99416.59
2018-01-05T09:53:10.691Z,99427.95
2018-01-05T09:54:17.033Z,99430.63
2018-01-05T09:55:21.236Z,99438.27
2018-01-05T09:56:25.326Z,99438.31
2018-01-05T09:57:29.555Z,99434.46
2018-01-05T09:58:34.009Z,99437.58
2018-01-05T09:59:39.193Z,99444.94
2018-01-05T10:00:43.697Z,99452.20
2018-01-05T10:01:48.177Z,99460.19
2018-01-05T10:02:53.044Z,99459.87
2018-01-05T10:03:57.183Z,99445.88
2018-01-05T10:05:01.686Z,99439.50
2018-01-05T10:06:05.896Z,99448.20
2018-01-05T10:07:10.147Z,99450.95
2018-01-05T10:08:14.493Z,99442.59
2018-01-05T10:09:18.995Z,99447.07
2018-01-05T10:10:23.478Z,99449.41
2018-01-05T10:11:28.019Z,99453.03
2018-01-05T10:12:32.331Z,99449.14
2018-01-05T10:13:36.649Z,99457.97
2018-01-05T10:14:41.376Z,99462.30
2018-01-05T10:15:46.196Z,99460.11
2018-01-05T10:16:50.967Z,99461.89
2018-01-05T10:17:56.522Z,99461.87
2018-01-05T10:19:00.665Z,99459.17
2018-01-05T10:20:04.857Z,99455.44
2018-01-05T10:21:09.227Z,99455.23
2018-01-05T10:22:25.690Z,99457.60
2018-01-05T10:23:29.963Z,99458.69
2018-01-05T10:24:34.139Z,99461.73
2018-01-05T10:25:39.782Z,99459.00
2018-01-05T10:26:44.002Z,99461.47
2018-01-05T10:27:48.244Z,99454.11
2018-01-05T10:28:53.022Z,99461.16
2018-01-05T10:29:57.457Z,99471.77
2018-01-05T10:31:01.989Z,99463.14
2018-01-05T10:32:06.174Z,99466.77
2018-01-05T10:33:11.453Z,99457.58
2018-01-05T10:34:15.714Z,99472.75
2018-01-05T10:35:20.309Z,99455.41
2018-01-05T10:36:24.485Z,99474.97
2018-01-05T10:37:28.729Z,99462.90
2018-01-05T10:38:33.018Z,99453.83
2018-01-05T10:39:37.210Z,99464.22
2018-01-05T10:40:42.312Z,99463.06
2018-01-05T10:41:46.445Z,99473.23
2018-01-05T10:42:50.700Z,99467.36
2018-01-05T10:43:55.986Z,99471.48
2018-01-05T10:45:00.210Z,99466.72
2018-01-05T10:46:04.626Z,99470.31
2018-01-05T10:47:09.410Z,99490.77
2018-01-05T10:48:13.625Z,99483.78
2018-01-05T10:49:18.060Z,99488.50
2018-01-05T10:50:22.646Z,99487.58
2018-01-05T10:51:26.831Z,99491.25
2018-01-05T10:52:31.011Z,99488.67
2018-01-05T10:53:35.341Z,99490.80
2018-01-05T10:54:40.196Z,99487.06
2018-01-05T10:55:44.471Z,99486.41
2018-01-05T10:56:49.122Z,99490.87
2018-01-05T10:57:53.299Z,99489.77
2018-01-05T10:58:57.886Z,99495.08
2018-01-05T11:00:02.227Z,99497.25
2018-01-05T11:01:06.814Z,99492.83
2018-01-05T11:02:11.124Z,99495.02
2018-01-05T11:03:15.376Z,99494.31
2018-01-05T11:04:19.614Z,99487.64
2018-01-05T11:05:24.144Z,99485.94
2018-01-05T11:06:28.342Z,99485.60
2018-01-05T11:07:32.819Z,99483.45
2018-01-05T11:08:37.033Z,99483.70
2018-01-05T11:09:41.903Z,99488.42
2018-01-05T11:10:46.126Z,99494.19
2018-01-05T11:11:50.642Z,99488.22
2018-01-05T11:12:54.810Z,99493.21
2018-01-05T11:13:59.453Z,99489.29
2018-01-05T11:15:05.657Z,99491.66
2018-01-05T11:16:09.954Z,99492.29
2018-01-05T11:17:14.719Z,99503.03
2018-01-05T11:18:18.959Z,99494.72
2018-01-05T11:19:23.172Z,99505.20
2018-01-05T11:20:27.370Z,99502.80
2018-01-05T11:21:31.678Z,99499.70
2018-01-05T11:22:35.967Z,99509.45
2018-01-05T11:23:40.853Z,99514.13
2018-01-05T11:24:46.338Z,99509.91
2018-01-05T11:25:50.993Z,99501.85
2018-01-05T11:26:56.079Z,99505.31
2018-01-05T11:28:00.334Z,99504.14
2018-01-05T11:29:04.787Z,99507.31
2018-01-05T11:30:09.192Z,99511.28
2018-01-05T11:31:13.351Z,99506.55
2018-01-05T11:32:17.560Z,99510.92
2018-01-05T11:33:21.805Z,99510.38
2018-01-05T11:34:26.026Z,99514.08
2018-01-05T11:35:30.632Z,99523.02
2018-01-05T11:36:34.760Z,99512.24
2018-01-05T11:37:40.849Z,99517.30
2018-01-05T11:38:45.246Z,99522.45
2018-01-05T11:39:49.692Z,99520.41
2018-01-05T11:40:54.039Z,99526.14
2018-01-05T11:41:58.530Z,99528.67
2018-01-05T11:43:02.751Z,99525.15
2018-01-05T11:44:07.063Z,99527.80
2018-01-05T11:45:13.913Z,99526.04
2018-01-05T11:46:18.469Z,99531.17
2018-01-05T11:47:22.732Z,99528.36
2018-01-05T11:48:27.266Z,99524.77
2018-01-05T11:49:31.591Z,99532.04
2018-01-05T11:50:35.805Z,99530.33
2018-01-05T11:51:40.918Z,99531.24
2018-01-05T11:52:45.176Z,99526.38
2018-01-05T11:53:49.416Z,99526.94
2018-01-05T11:54:54.656Z,99532.67
2018-01-05T11:55:58.993Z,99525.97
2018-01-05T11:57:03.262Z,99522.94
2018-01-05T11:58:07.502Z,99523.88
2018-01-05T11:59:11.828Z,99520.44
2018-01-05T12:00:26.882Z,99528.48
2018-01-05T12:01:31.247Z,99527.95
2018-01-05T12:02:35.757Z,99519.71
2018-01-05T12:03:39.967Z,99525.54
2018-01-05T12:04:44.146Z,99519.93
2018-01-05T12:05:48.353Z,99519.95
2018-01-05T12:06:53.269Z,99522.63
2018-01-05T12:07:57.438Z,99528.42
2018-01-05T12:09:01.880Z,99533.06
2018-01-05T12:10:06.383Z,99529.28
2018-01-05T12:11:10.518Z,99531.52
2018-01-05T12:12:14.720Z,99532.02
2018-01-05T12:13:18.997Z,99535.52
2018-01-05T12:14:23.188Z,99539.03
2018-01-05T12:15:27.789Z,99527.64
2018-01-05T12:16:32.064Z,99525.03
2018-01-05T12:17:36.754Z,99538.89
2018-01-05T12:18:41.800Z,99534.63
2018-01-05T12:19:46.243Z,99534.72
2018-01-05T12:20:50.386Z,99537.75
2018-01-05T12:21:55.514Z,99533.08
2018-01-05T12:22:59.638Z,99536.45
2018-01-05T12:24:03.812Z,99530.78
2018-01-05T12:25:08.018Z,99520.63
2018-01-05T12:26:12.894Z,99519.47
2018-01-05T12:27:17.164Z,99533.34
2018-01-05T12:28:21.386Z,99521.55
2018-01-05T12:29:25.745Z,99524.12
2018-01-05T12:30:30.726Z,99525.81
2018-01-05T12:31:34.974Z,99529.33
2018-01-05T12:32:39.568Z,99532.73
2018-01-05T12:33:44.777Z,99532.32
2018-01-05T12:34:48.977Z,99528.34
2018-01-05T12:35:54.067Z,99530.53
2018-01-05T12:36:58.354Z,99540.26
2018-01-05T12:38:02.598Z,99548.31
2018-01-05T12:39:07.395Z,99549.75
2018-01-05T12:40:11.804Z,99562.08